Time;durP1;ratioP1;P1;durP2;ratioP2;P2;SDS_P1;SDS_P2;PMS_P1;PMS_P2;Temp;Humidity;BMP_temperature;BMP_pressure;BME280_temperature;BME280_humidity;BME280_pressure;Samples;Min_cycle;Max_cycle;Signal;HPM_P1;HPM_P2
2022/04/11 00:00:59;;;;;;;0.40;0.40;;;;;;;;;;4932331;29;20051;-74
2022/04/11 00:03:25;;;;;;;0.15;0.15;;;;;;;;;;4934157;29;20676;-74
2022/04/11 00:05:50;;;;;;;0.20;0.20;;;;;;;;;;4937620;29;20456;-75
2022/04/11 00:08:21;;;;;;;0.20;0.20;;;;;;;;;;4937395;29;20027;-74
2022/04/11 00:10:47;;;;;;;0.17;0.17;;;;;;;;;;4933159;29;20167;-75
2022/04/11 00:13:12;;;;;;;0.65;0.30;;;;;;;;;;4929353;29;20505;-74
2022/04/11 00:15:41;;;;;;;0.10;0.10;;;;;;;;;;4936718;29;20449;-74
2022/04/11 00:18:09;;;;;;;0.55;0.55;;;;;;;;;;4931754;29;20055;-74
2022/04/11 00:20:35;;;;;;;0.22;0.22;;;;;;;;;;4940957;29;20027;-74
2022/04/11 00:23:03;;;;;;;0.00;0.00;;;;;;;;;;4939176;29;20100;-74
2022/04/11 00:25:28;;;;;;;0.15;0.15;;;;;;;;;;4923028;29;20106;-74
2022/04/11 00:27:56;;;;;;;0.00;0.00;;;;;;;;;;4938876;29;20051;-74
2022/04/11 00:30:23;;;;;;;0.30;0.20;;;;;;;;;;4939811;29;20027;-74
2022/04/11 00:32:49;;;;;;;0.68;0.20;;;;;;;;;;4939704;29;20087;-74
2022/04/11 00:35:17;;;;;;;0.40;0.32;;;;;;;;;;4937959;29;20027;-72
2022/04/11 00:37:42;;;;;;;0.25;0.25;;;;;;;;;;4938974;29;20075;-74
2022/04/11 00:40:09;;;;;;;0.20;0.20;;;;;;;;;;4939327;29;20023;-72
2022/04/11 00:42:34;;;;;;;1.38;0.70;;;;;;;;;;4926860;29;20043;-73
2022/04/11 00:45:03;;;;;;;0.68;0.68;;;;;;;;;;4922766;29;20023;-73
2022/04/11 00:47:29;;;;;;;0.50;0.50;;;;;;;;;;4938566;29;20027;-73
2022/04/11 00:50:02;;;;;;;0.65;0.63;;;;;;;;;;4938545;29;20034;-73
2022/04/11 00:52:30;;;;;;;0.10;0.10;;;;;;;;;;4939458;29;20028;-73
2022/04/11 00:54:55;;;;;;;0.28;0.28;;;;;;;;;;4939035;29;20027;-73
2022/04/11 00:57:24;;;;;;;0.00;0.00;;;;;;;;;;4938493;29;20483;-73
2022/04/11 00:59:52;;;;;;;0.00;0.00;;;;;;;;;;4938518;29;20031;-73
2022/04/11 01:02:17;;;;;;;0.05;0.05;;;;;;;;;;4938817;29;20424;-72
2022/04/11 01:04:45;;;;;;;0.35;0.35;;;;;;;;;;4939168;29;20489;-73
2022/04/11 01:07:10;;;;;;;0.93;0.80;;;;;;;;;;4938980;29;20102;-73
2022/04/11 01:09:35;;;;;;;0.75;0.75;;;;;;;;;;4939044;29;20115;-73
2022/04/11 01:12:02;;;;;;;0.00;0.00;;;;;;;;;;4918309;29;20043;-73
2022/04/11 01:14:27;;;;;;;1.00;0.85;;;;;;;;;;4938516;29;20042;-72
2022/04/11 01:16:53;;;;;;;0.63;0.63;;;;;;;;;;4938021;29;20027;-73
2022/04/11 01:19:19;;;;;;;0.10;0.10;;;;;;;;;;4938210;29;20467;-73
2022/04/11 01:21:48;;;;;;;0.00;0.00;;;;;;;;;;4926872;29;20119;-73
2022/04/11 01:24:16;;;;;;;0.10;0.10;;;;;;;;;;4919826;29;20024;-73
2022/04/11 01:26:41;;;;;;;0.30;0.30;;;;;;;;;;4919863;29;20032;-73
2022/04/11 01:29:08;;;;;;;0.00;0.00;;;;;;;;;;4918771;29;20035;-73
2022/04/11 01:31:34;;;;;;;0.00;0.00;;;;;;;;;;4919736;29;20043;-72
2022/04/11 01:33:59;;;;;;;0.65;0.65;;;;;;;;;;4936579;29;20023;-73
2022/04/11 01:36:24;;;;;;;0.20;0.20;;;;;;;;;;4938852;29;20034;-73
2022/04/11 01:38:50;;;;;;;0.00;0.00;;;;;;;;;;4937540;29;20032;-72
2022/04/11 01:41:19;;;;;;;0.30;0.30;;;;;;;;;;4938399;29;20360;-73
2022/04/11 01:43:45;;;;;;;0.00;0.00;;;;;;;;;;4938354;29;20028;-72
2022/04/11 01:46:10;;;;;;;0.22;0.22;;;;;;;;;;4937855;29;20094;-73
2022/04/11 01:48:36;;;;;;;0.17;0.17;;;;;;;;;;4937557;29;20042;-73
2022/04/11 01:51:01;;;;;;;0.10;0.10;;;;;;;;;;4937344;29;20039;-73
2022/04/11 01:53:31;;;;;;;0.08;0.08;;;;;;;;;;4937086;29;20036;-74
2022/04/11 01:55:57;;;;;;;0.80;0.65;;;;;;;;;;4923851;29;20036;-73
2022/04/11 01:58:22;;;;;;;0.00;0.00;;;;;;;;;;4918298;29;20040;-73
2022/04/11 02:00:50;;;;;;;0.00;0.00;;;;;;;;;;4922774;29;20038;-73
2022/04/11 02:03:15;;;;;;;0.08;0.08;;;;;;;;;;4921250;29;20111;-74
2022/04/11 02:05:41;;;;;;;0.10;0.10;;;;;;;;;;4929961;29;20115;-73
2022/04/11 02:08:10;;;;;;;2.05;0.20;;;;;;;;;;4936479;29;20476;-73
2022/04/11 02:10:36;;;;;;;0.00;0.00;;;;;;;;;;4922695;29;20036;-73
2022/04/11 02:13:05;;;;;;;0.22;0.22;;;;;;;;;;4932558;29;20038;-73
2022/04/11 02:15:30;;;;;;;0.25;0.10;;;;;;;;;;4932396;29;20038;-73
2022/04/11 02:17:56;;;;;;;0.10;0.10;;;;;;;;;;4937130;29;20023;-73
2022/04/11 02:20:21;;;;;;;0.03;0.03;;;;;;;;;;4937885;29;20114;-73
2022/04/11 02:22:51;;;;;;;1.00;0.73;;;;;;;;;;4935176;29;20027;-73
2022/04/11 02:25:18;;;;;;;0.00;0.00;;;;;;;;;;4938036;29;20356;-72
2022/04/11 02:27:49;;;;;;;0.00;0.00;;;;;;;;;;4936600;29;20051;-73
2022/04/11 02:30:16;;;;;;;0.10;0.10;;;;;;;;;;4936835;29;20101;-73
2022/04/11 02:32:41;;;;;;;1.05;0.93;;;;;;;;;;4935838;29;20023;-73
2022/04/11 02:35:10;;;;;;;0.10;0.10;;;;;;;;;;4937623;29;20340;-73
2022/04/11 02:37:36;;;;;;;0.00;0.00;;;;;;;;;;4936820;29;20483;-73
2022/04/11 02:40:02;;;;;;;0.35;0.30;;;;;;;;;;4937881;29;20024;-73
2022/04/11 02:42:28;;;;;;;0.10;0.10;;;;;;;;;;4929435;29;20613;-73
2022/04/11 02:44:54;;;;;;;0.10;0.10;;;;;;;;;;4937416;29;20032;-74
2022/04/11 02:47:20;;;;;;;0.00;0.00;;;;;;;;;;4937425;29;20031;-73
2022/04/11 02:49:48;;;;;;;0.80;0.55;;;;;;;;;;4937463;29;20035;-73
2022/04/11 02:52:16;;;;;;;0.10;0.10;;;;;;;;;;4937067;29;20042;-72
2022/04/11 02:54:41;;;;;;;0.25;0.20;;;;;;;;;;4936370;29;20414;-73
2022/04/11 02:57:07;;;;;;;0.32;0.32;;;;;;;;;;4921471;29;20036;-73
2022/04/11 02:59:34;;;;;;;0.15;0.15;;;;;;;;;;4918448;29;20047;-73
2022/04/11 03:02:03;;;;;;;0.10;0.00;;;;;;;;;;4920102;29;20063;-73
2022/04/11 03:04:32;;;;;;;0.05;0.05;;;;;;;;;;4934978;29;20042;-73
2022/04/11 03:06:57;;;;;;;0.10;0.10;;;;;;;;;;4936290;29;20028;-73
2022/04/11 03:09:22;;;;;;;0.05;0.05;;;;;;;;;;4937167;29;20058;-72
2022/04/11 03:11:53;;;;;;;0.20;0.20;;;;;;;;;;4937167;29;20107;-73
2022/04/11 03:14:18;;;;;;;0.00;0.00;;;;;;;;;;4936672;29;20068;-73
2022/04/11 03:16:46;;;;;;;0.10;0.10;;;;;;;;;;4936949;29;20055;-72
2022/04/11 03:19:11;;;;;;;2.65;0.57;;;;;;;;;;4936358;29;20019;-73
2022/04/11 03:21:36;;;;;;;0.20;0.20;;;;;;;;;;4937020;29;20038;-73
2022/04/11 03:24:04;;;;;;;0.10;0.10;;;;;;;;;;4935819;29;20122;-73
2022/04/11 03:26:30;;;;;;;0.00;0.00;;;;;;;;;;4937190;29;20031;-72
2022/04/11 03:28:55;;;;;;;0.28;0.28;;;;;;;;;;4936514;29;20028;-72
2022/04/11 03:31:20;;;;;;;0.52;0.10;;;;;;;;;;4935974;29;20338;-73
2022/04/11 03:33:46;;;;;;;0.15;0.10;;;;;;;;;;4935627;29;20111;-72
2022/04/11 03:36:11;;;;;;;0.13;0.13;;;;;;;;;;4936872;29;20172;-73
2022/04/11 03:38:37;;;;;;;0.00;0.00;;;;;;;;;;4938231;29;20074;-73
2022/04/11 03:41:03;;;;;;;0.20;0.20;;;;;;;;;;4940592;29;20028;-73
2022/04/11 03:43:30;;;;;;;0.05;0.05;;;;;;;;;;4939600;29;20028;-73
2022/04/11 03:45:59;;;;;;;0.08;0.00;;;;;;;;;;4940096;29;20063;-73
2022/04/11 03:48:26;;;;;;;0.15;0.15;;;;;;;;;;4939560;29;20024;-72
2022/04/11 03:50:52;;;;;;;0.10;0.10;;;;;;;;;;4940587;29;20112;-73
2022/04/11 03:53:20;;;;;;;0.10;0.10;;;;;;;;;;4940411;29;20554;-73
2022/04/11 03:55:47;;;;;;;0.00;0.00;;;;;;;;;;4936591;29;20027;-73
2022/04/11 03:58:13;;;;;;;0.77;0.70;;;;;;;;;;4929170;29;20028;-73
2022/04/11 04:00:38;;;;;;;0.00;0.00;;;;;;;;;;4924778;29;20350;-73
2022/04/11 04:03:07;;;;;;;0.00;0.00;;;;;;;;;;4938266;29;20031;-73
2022/04/11 04:05:33;;;;;;;0.28;0.28;;;;;;;;;;4939567;29;20318;-73
2022/04/11 04:07:58;;;;;;;0.00;0.00;;;;;;;;;;4938556;29;20047;-72
2022/04/11 04:10:27;;;;;;;0.15;0.15;;;;;;;;;;4939217;29;20078;-73
2022/04/11 04:13:01;;;;;;;1.65;0.20;;;;;;;;;;4925929;29;20028;-73
2022/04/11 04:15:26;;;;;;;0.00;0.00;;;;;;;;;;4933197;29;20035;-72
2022/04/11 04:17:57;;;;;;;0.00;0.00;;;;;;;;;;4938564;29;20361;-73
2022/04/11 04:20:25;;;;;;;1.67;0.68;;;;;;;;;;4937504;29;20441;-73
2022/04/11 04:22:52;;;;;;;0.35;0.35;;;;;;;;;;4938339;29;20023;-73
2022/04/11 04:25:17;;;;;;;0.00;0.00;;;;;;;;;;4939676;29;20027;-72
2022/04/11 04:27:45;;;;;;;0.03;0.03;;;;;;;;;;4934690;29;20119;-73
2022/04/11 04:30:10;;;;;;;0.38;0.22;;;;;;;;;;4937217;29;20047;-72
2022/04/11 04:32:36;;;;;;;0.00;0.00;;;;;;;;;;4939551;29;20390;-73
2022/04/11 04:35:05;;;;;;;0.20;0.20;;;;;;;;;;4939272;29;20039;-72
2022/04/11 04:37:30;;;;;;;0.77;0.75;;;;;;;;;;4939336;29;20088;-73
2022/04/11 04:39:58;;;;;;;0.00;0.00;;;;;;;;;;4939189;29;20310;-73
2022/04/11 04:42:26;;;;;;;0.10;0.10;;;;;;;;;;4929956;29;20446;-72
2022/04/11 04:44:52;;;;;;;1.95;1.10;;;;;;;;;;4920794;29;20042;-72
2022/04/11 04:47:17;;;;;;;0.30;0.30;;;;;;;;;;4928742;29;20032;-72
2022/04/11 04:49:45;;;;;;;0.20;0.20;;;;;;;;;;4937402;29;20082;-73
2022/04/11 04:52:13;;;;;;;0.20;0.20;;;;;;;;;;4922469;29;20451;-72
2022/04/11 04:54:38;;;;;;;0.45;0.45;;;;;;;;;;4919415;29;20024;-73
2022/04/11 04:57:07;;;;;;;0.00;0.00;;;;;;;;;;4934171;29;20110;-72
2022/04/11 04:59:32;;;;;;;0.28;0.28;;;;;;;;;;4924885;29;20564;-72
2022/04/11 05:01:58;;;;;;;0.32;0.22;;;;;;;;;;4924168;29;20111;-73
2022/04/11 05:04:25;;;;;;;0.47;0.47;;;;;;;;;;4937523;29;20055;-73
2022/04/11 05:06:51;;;;;;;0.77;0.65;;;;;;;;;;4934284;29;20094;-72
2022/04/11 05:09:16;;;;;;;0.10;0.10;;;;;;;;;;4938179;29;20035;-73
2022/04/11 05:11:42;;;;;;;1.25;0.43;;;;;;;;;;4924498;29;20036;-73
2022/04/11 05:14:07;;;;;;;0.05;0.05;;;;;;;;;;4928549;29;20090;-73
2022/04/11 05:16:32;;;;;;;0.17;0.17;;;;;;;;;;4937510;29;20412;-73
2022/04/11 05:19:00;;;;;;;0.20;0.20;;;;;;;;;;4937434;29;20051;-73
2022/04/11 05:21:26;;;;;;;0.00;0.00;;;;;;;;;;4936221;29;20111;-73
2022/04/11 05:23:51;;;;;;;0.20;0.20;;;;;;;;;;4937645;29;20125;-72
2022/04/11 05:26:18;;;;;;;0.15;0.15;;;;;;;;;;4919993;29;20064;-73
2022/04/11 05:28:44;;;;;;;0.10;0.10;;;;;;;;;;4919646;29;20031;-72
2022/04/11 05:31:09;;;;;;;0.10;0.10;;;;;;;;;;4927391;29;20028;-73
2022/04/11 05:33:35;;;;;;;0.10;0.10;;;;;;;;;;4927241;29;20042;-74
2022/04/11 05:36:00;;;;;;;0.10;0.10;;;;;;;;;;4938514;29;20042;-73
2022/04/11 05:38:25;;;;;;;0.30;0.10;;;;;;;;;;4937893;29;20031;-73
2022/04/11 05:40:51;;;;;;;0.47;0.47;;;;;;;;;;4924373;29;20032;-73
2022/04/11 05:43:16;;;;;;;0.10;0.10;;;;;;;;;;4925824;29;20063;-73
2022/04/11 05:45:42;;;;;;;0.00;0.00;;;;;;;;;;4923493;29;20217;-73
2022/04/11 05:48:11;;;;;;;0.20;0.20;;;;;;;;;;4937518;29;20074;-73
2022/04/11 05:50:36;;;;;;;0.00;0.00;;;;;;;;;;4937731;29;20520;-73
2022/04/11 05:53:04;;;;;;;0.25;0.25;;;;;;;;;;4937564;29;20061;-73
2022/04/11 05:55:30;;;;;;;0.00;0.00;;;;;;;;;;4937669;29;20091;-73
2022/04/11 05:57:55;;;;;;;0.57;0.57;;;;;;;;;;4931435;29;20024;-73
2022/04/11 06:00:23;;;;;;;0.30;0.10;;;;;;;;;;4926660;29;20365;-73
2022/04/11 06:02:50;;;;;;;0.00;0.00;;;;;;;;;;4930571;29;20351;-72
2022/04/11 06:05:15;;;;;;;0.45;0.45;;;;;;;;;;4919894;29;20019;-73
2022/04/11 06:07:40;;;;;;;0.45;0.45;;;;;;;;;;4919904;29;20046;-73
2022/04/11 06:10:07;;;;;;;0.38;0.38;;;;;;;;;;4922583;29;20026;-72
2022/04/11 06:12:35;;;;;;;0.82;0.80;;;;;;;;;;4935698;29;20055;-73
2022/04/11 06:15:00;;;;;;;0.32;0.32;;;;;;;;;;4933898;29;20036;-73
2022/04/11 06:17:28;;;;;;;2.75;0.10;;;;;;;;;;4933125;29;20043;-73
2022/04/11 06:19:57;;;;;;;0.15;0.15;;;;;;;;;;4936673;29;20031;-73
2022/04/11 06:22:23;;;;;;;0.10;0.05;;;;;;;;;;4937101;29;20461;-73
2022/04/11 06:24:58;;;;;;;1.70;0.13;;;;;;;;;;4934804;29;20031;-73
2022/04/11 06:27:23;;;;;;;0.05;0.05;;;;;;;;;;4937874;29;20401;-73
2022/04/11 06:29:56;;;;;;;0.08;0.08;;;;;;;;;;4931387;29;20111;-73
2022/04/11 06:32:29;;;;;;;0.00;0.00;;;;;;;;;;4924422;29;20484;-73
2022/04/11 06:34:55;;;;;;;0.08;0.08;;;;;;;;;;4936765;29;20366;-74
2022/04/11 06:37:21;;;;;;;1.45;0.95;;;;;;;;;;4936780;29;20034;-73
2022/04/11 06:39:49;;;;;;;0.30;0.30;;;;;;;;;;4936892;29;20034;-73
2022/04/11 06:42:14;;;;;;;0.00;0.00;;;;;;;;;;4937124;29;20047;-73
2022/04/11 06:44:39;;;;;;;0.03;0.03;;;;;;;;;;4936552;29;20024;-73
2022/04/11 06:47:05;;;;;;;0.20;0.20;;;;;;;;;;4928614;29;20030;-73
2022/04/11 06:49:33;;;;;;;0.45;0.45;;;;;;;;;;4934319;29;20031;-73
2022/04/11 06:51:58;;;;;;;0.00;0.00;;;;;;;;;;4936383;29;20037;-73
2022/04/11 06:54:24;;;;;;;0.13;0.13;;;;;;;;;;4935793;29;20072;-73
2022/04/11 06:56:51;;;;;;;0.43;0.22;;;;;;;;;;4931015;29;20036;-73
2022/04/11 06:59:18;;;;;;;0.28;0.17;;;;;;;;;;4931954;29;20044;-75
2022/04/11 07:01:44;;;;;;;0.17;0.17;;;;;;;;;;4939168;29;20027;-74
2022/04/11 07:04:09;;;;;;;0.55;0.52;;;;;;;;;;4936197;29;20110;-73
2022/04/11 07:06:34;;;;;;;1.15;0.90;;;;;;;;;;4927439;29;20461;-73
2022/04/11 07:09:00;;;;;;;0.00;0.00;;;;;;;;;;4934190;29;20042;-74
2022/04/11 07:11:30;;;;;;;0.00;0.00;;;;;;;;;;4935544;29;20042;-73
2022/04/11 07:13:56;;;;;;;0.55;0.55;;;;;;;;;;4937028;29;20111;-74
2022/04/11 07:16:21;;;;;;;0.05;0.05;;;;;;;;;;4936009;29;20114;-74
2022/04/11 07:18:46;;;;;;;0.03;0.03;;;;;;;;;;4936874;29;20031;-73
2022/04/11 07:21:12;;;;;;;0.47;0.47;;;;;;;;;;4936970;29;20039;-73
2022/04/11 07:23:37;;;;;;;0.13;0.13;;;;;;;;;;4936508;29;20050;-73
2022/04/11 07:26:02;;;;;;;0.93;0.93;;;;;;;;;;4936114;29;20028;-73
2022/04/11 07:28:28;;;;;;;0.28;0.28;;;;;;;;;;4935097;29;20032;-73
2022/04/11 07:30:53;;;;;;;0.32;0.32;;;;;;;;;;4930204;29;20042;-73
2022/04/11 07:33:34;;;;;;;0.30;0.30;;;;;;;;;;4930043;29;20140;-74
2022/04/11 07:35:59;;;;;;;0.25;0.25;;;;;;;;;;4928782;29;20020;-74
2022/04/11 07:38:27;;;;;;;0.95;0.63;;;;;;;;;;4901208;29;20417;-73
2022/04/11 07:40:52;;;;;;;0.55;0.35;;;;;;;;;;4918056;29;20032;-73
2022/04/11 07:43:21;;;;;;;0.93;0.47;;;;;;;;;;4929036;29;20028;-73
2022/04/11 07:45:49;;;;;;;0.45;0.45;;;;;;;;;;4916651;29;20035;-73
2022/04/11 07:48:16;;;;;;;0.40;0.40;;;;;;;;;;4924402;29;20028;-74
2022/04/11 07:50:42;;;;;;;1.55;0.88;;;;;;;;;;4935513;29;20024;-73
2022/04/11 07:53:07;;;;;;;0.32;0.32;;;;;;;;;;4931426;29;20036;-74
2022/04/11 07:55:35;;;;;;;0.20;0.20;;;;;;;;;;4936223;29;20077;-74
2022/04/11 07:58:15;;;;;;;1.35;1.23;;;;;;;;;;4929791;29;20032;-74
2022/04/11 08:00:41;;;;;;;2.58;0.77;;;;;;;;;;4918397;29;20032;-74
2022/04/11 08:03:06;;;;;;;0.63;0.63;;;;;;;;;;4929883;29;20038;-74
2022/04/11 08:05:32;;;;;;;0.65;0.65;;;;;;;;;;4935991;29;20095;-74
2022/04/11 08:07:57;;;;;;;0.70;0.63;;;;;;;;;;4935849;29;20027;-76
2022/04/11 08:10:26;;;;;;;1.15;0.82;;;;;;;;;;4936394;29;20035;-79
2022/04/11 08:12:56;;;;;;;0.50;0.45;;;;;;;;;;4931014;29;20032;-79
2022/04/11 08:15:24;;;;;;;0.88;0.73;;;;;;;;;;4935752;29;20059;-78
2022/04/11 08:17:55;;;;;;;0.40;0.40;;;;;;;;;;4922852;29;20119;-78
2022/04/11 08:20:21;;;;;;;0.20;0.20;;;;;;;;;;4916703;29;20064;-78
2022/04/11 08:22:48;;;;;;;0.50;0.50;;;;;;;;;;4917136;29;20024;-78
2022/04/11 08:25:14;;;;;;;0.65;0.30;;;;;;;;;;4918939;29;20384;-78
2022/04/11 08:27:47;;;;;;;0.17;0.17;;;;;;;;;;4933528;29;20082;-78
2022/04/11 08:30:13;;;;;;;0.22;0.22;;;;;;;;;;4939583;29;20059;-77
2022/04/11 08:32:38;;;;;;;0.30;0.30;;;;;;;;;;4925107;29;20027;-77
2022/04/11 08:35:33;;;;;;;0.30;0.30;;;;;;;;;;4936342;29;20036;-76
2022/04/11 08:38:03;;;;;;;7.65;0.50;;;;;;;;;;4927029;29;20048;-79
2022/04/11 08:40:33;;;;;;;0.77;0.70;;;;;;;;;;4931145;29;20031;-80
2022/04/11 08:43:02;;;;;;;1.20;0.93;;;;;;;;;;4935733;29;20038;-77
2022/04/11 08:45:30;;;;;;;0.90;0.70;;;;;;;;;;4928632;29;20889;-81
2022/04/11 08:47:56;;;;;;;0.10;0.10;;;;;;;;;;4917740;29;20027;-81
2022/04/11 08:50:23;;;;;;;0.85;0.73;;;;;;;;;;4921685;29;20055;-82
2022/04/11 08:53:00;;;;;;;3.75;0.60;;;;;;;;;;4934276;29;20038;-82
2022/04/11 08:55:30;;;;;;;1.65;0.82;;;;;;;;;;4931674;29;20063;-84
2022/04/11 08:57:57;;;;;;;0.68;0.28;;;;;;;;;;4932790;29;20028;-82
2022/04/11 09:00:22;;;;;;;0.10;0.10;;;;;;;;;;4931865;29;20530;-81
2022/04/11 09:03:08;;;;;;;0.20;0.20;;;;;;;;;;4933155;29;20123;-78
2022/04/11 09:05:34;;;;;;;0.25;0.22;;;;;;;;;;4914936;29;20158;-79
2022/04/11 09:08:02;;;;;;;0.52;0.52;;;;;;;;;;4916688;29;20554;-80
2022/04/11 09:10:40;;;;;;;1.23;0.63;;;;;;;;;;4925735;29;20461;-80
2022/04/11 09:13:09;;;;;;;1.08;0.40;;;;;;;;;;4936962;29;20031;-80
2022/04/11 09:15:47;;;;;;;1.27;0.77;;;;;;;;;;4910189;29;20111;-80
2022/04/11 09:18:13;;;;;;;1.90;0.65;;;;;;;;;;4934141;29;20032;-79
2022/04/11 09:20:42;;;;;;;0.20;0.20;;;;;;;;;;4935030;29;20024;-81
2022/04/11 09:23:19;;;;;;;0.60;0.25;;;;;;;;;;4936470;29;20445;-78
2022/04/11 09:25:47;;;;;;;1.05;0.77;;;;;;;;;;4937507;29;20024;-80
2022/04/11 09:28:12;;;;;;;0.80;0.45;;;;;;;;;;4922284;29;20031;-81
2022/04/11 09:30:39;;;;;;;0.15;0.15;;;;;;;;;;4937903;29;20046;-81
2022/04/11 09:33:11;;;;;;;0.35;0.35;;;;;;;;;;4922158;29;20070;-80
2022/04/11 09:35:44;;;;;;;1.02;0.73;;;;;;;;;;4936916;29;20413;-81
2022/04/11 09:38:25;;;;;;;0.22;0.20;;;;;;;;;;4937676;29;20103;-81
2022/04/11 09:40:52;;;;;;;0.85;0.68;;;;;;;;;;4938381;29;20023;-80
2022/04/11 09:43:23;;;;;;;0.28;0.28;;;;;;;;;;4921228;29;20024;-80
2022/04/11 09:45:51;;;;;;;1.55;0.70;;;;;;;;;;4934554;29;20437;-80
2022/04/11 09:48:21;;;;;;;8.05;0.85;;;;;;;;;;4934906;29;20043;-80
2022/04/11 09:50:48;;;;;;;0.55;0.55;;;;;;;;;;4938557;29;20330;-80
2022/04/11 09:53:33;;;;;;;0.20;0.20;;;;;;;;;;4903589;29;20345;-81
2022/04/11 09:56:04;;;;;;;0.55;0.55;;;;;;;;;;4919271;29;20028;-80
2022/04/11 09:58:30;;;;;;;0.93;0.77;;;;;;;;;;4918748;29;20335;-81
2022/04/11 10:00:57;;;;;;;0.30;0.30;;;;;;;;;;4918428;29;20035;-80
2022/04/11 10:03:25;;;;;;;0.30;0.20;;;;;;;;;;4902885;29;20465;-80
2022/04/11 10:05:51;;;;;;;0.25;0.20;;;;;;;;;;4923522;29;20114;-81
2022/04/11 10:08:28;;;;;;;0.17;0.17;;;;;;;;;;4937240;29;20098;-80
2022/04/11 10:10:58;;;;;;;4.60;0.77;;;;;;;;;;4936704;29;20031;-80
2022/04/11 10:13:23;;;;;;;2.03;0.93;;;;;;;;;;4904613;29;20445;-80
2022/04/11 10:15:49;;;;;;;0.45;0.30;;;;;;;;;;4919633;29;20059;-80
2022/04/11 10:18:19;;;;;;;0.60;0.55;;;;;;;;;;4919894;29;20573;-80
2022/04/11 10:21:09;;;;;;;0.10;0.10;;;;;;;;;;4921563;29;20038;-80
2022/04/11 10:23:45;;;;;;;0.43;0.40;;;;;;;;;;4929841;29;20083;-80
2022/04/11 10:26:15;;;;;;;0.45;0.38;;;;;;;;;;4935753;29;20433;-81
2022/04/11 10:28:46;;;;;;;0.10;0.10;;;;;;;;;;4917956;29;20526;-80
2022/04/11 10:31:13;;;;;;;0.30;0.30;;;;;;;;;;4928080;29;20028;-79
2022/04/11 10:33:52;;;;;;;0.20;0.20;;;;;;;;;;4934931;29;20031;-81
2022/04/11 10:36:38;;;;;;;0.50;0.45;;;;;;;;;;4912979;29;20477;-82
2022/04/11 10:39:13;;;;;;;0.50;0.35;;;;;;;;;;4921230;29;20036;-80
2022/04/11 10:41:57;;;;;;;0.57;0.57;;;;;;;;;;4935572;29;20026;-80
2022/04/11 10:44:33;;;;;;;0.90;0.70;;;;;;;;;;4935533;29;20361;-80
2022/04/11 10:47:07;;;;;;;0.55;0.40;;;;;;;;;;4928016;29;20020;-81
2022/04/11 10:49:55;;;;;;;0.10;0.10;;;;;;;;;;4919087;29;20042;-81
2022/04/11 10:52:26;;;;;;;0.30;0.30;;;;;;;;;;4949097;29;20024;-79
2022/04/11 10:54:54;;;;;;;1.00;0.50;;;;;;;;;;4930370;29;20028;-80
2022/04/11 10:57:43;;;;;;;1.08;0.32;;;;;;;;;;4928975;29;20064;-79
2022/04/11 11:00:18;;;;;;;0.82;0.68;;;;;;;;;;4947772;29;20039;-79
2022/04/11 11:05:31;;;;;;;0.40;0.40;;;;;;;;;;4927099;29;20469;-80
2022/04/11 11:08:13;;;;;;;4.65;0.57;;;;;;;;;;4922492;29;20051;-80
2022/04/11 11:10:59;;;;;;;0.40;0.40;;;;;;;;;;4919755;29;20028;-81
2022/04/11 11:13:30;;;;;;;1.33;0.77;;;;;;;;;;4927290;29;20034;-80
2022/04/11 11:16:01;;;;;;;0.35;0.22;;;;;;;;;;4924131;29;20103;-80
2022/04/11 11:18:46;;;;;;;0.13;0.13;;;;;;;;;;4926516;29;20119;-80
2022/04/11 11:21:12;;;;;;;0.80;0.80;;;;;;;;;;4926909;29;20048;-81
2022/04/11 11:23:38;;;;;;;2.05;1.15;;;;;;;;;;4933941;29;20042;-81
2022/04/11 11:26:09;;;;;;;0.98;0.40;;;;;;;;;;4923092;29;20024;-79
2022/04/11 11:28:34;;;;;;;0.68;0.68;;;;;;;;;;4931491;29;20023;-81
2022/04/11 11:31:03;;;;;;;0.85;0.82;;;;;;;;;;4934042;29;20035;-80
2022/04/11 11:33:30;;;;;;;3.20;0.88;;;;;;;;;;4934107;29;20032;-79
2022/04/11 11:36:08;;;;;;;0.40;0.40;;;;;;;;;;4929752;29;20038;-79
2022/04/11 11:38:36;;;;;;;4.65;0.65;;;;;;;;;;4928923;29;20027;-79
2022/04/11 11:41:04;;;;;;;1.40;0.55;;;;;;;;;;4915142;29;20164;-80
2022/04/11 11:43:31;;;;;;;0.30;0.30;;;;;;;;;;4934530;29;20464;-80
2022/04/11 11:46:01;;;;;;;0.80;0.70;;;;;;;;;;4916848;29;20032;-80
2022/04/11 11:48:30;;;;;;;1.10;0.65;;;;;;;;;;4919395;29;20028;-80
2022/04/11 11:51:00;;;;;;;1.25;0.88;;;;;;;;;;4918257;29;20044;-81
2022/04/11 11:53:50;;;;;;;0.30;0.30;;;;;;;;;;4902133;29;20028;-80
2022/04/11 11:56:16;;;;;;;0.40;0.40;;;;;;;;;;4917800;29;20043;-80
2022/04/11 11:58:46;;;;;;;1.00;0.35;;;;;;;;;;4917440;29;20144;-81
2022/04/11 12:01:13;;;;;;;0.68;0.68;;;;;;;;;;4904808;29;20036;-80
2022/04/11 12:06:31;;;;;;;0.15;0.15;;;;;;;;;;4921470;29;20038;-80
2022/04/11 12:08:59;;;;;;;0.32;0.32;;;;;;;;;;4904823;29;20051;-81
2022/04/11 12:11:26;;;;;;;2.47;0.50;;;;;;;;;;4922064;29;20057;-81
2022/04/11 12:14:05;;;;;;;0.43;0.43;;;;;;;;;;4939051;29;20031;-80
2022/04/11 12:16:32;;;;;;;1.08;0.50;;;;;;;;;;4939375;29;20027;-80
2022/04/11 12:19:00;;;;;;;1.13;0.77;;;;;;;;;;4939026;29;20036;-80
2022/04/11 12:21:35;;;;;;;1.38;0.60;;;;;;;;;;4916572;29;20032;-80
2022/04/11 12:24:02;;;;;;;0.77;0.50;;;;;;;;;;4920850;29;20052;-80
2022/04/11 12:26:38;;;;;;;0.40;0.40;;;;;;;;;;4904252;29;20028;-80
2022/04/11 12:29:10;;;;;;;0.65;0.40;;;;;;;;;;4921687;29;20043;-81
2022/04/11 12:31:39;;;;;;;0.30;0.30;;;;;;;;;;4919796;29;20024;-81
2022/04/11 12:34:15;;;;;;;0.30;0.30;;;;;;;;;;4920682;29;20043;-78
2022/04/11 12:37:01;;;;;;;0.28;0.28;;;;;;;;;;4904524;29;20093;-81
2022/04/11 12:39:29;;;;;;;0.13;0.13;;;;;;;;;;4904083;29;20032;-79
2022/04/11 12:41:55;;;;;;;0.40;0.40;;;;;;;;;;4926444;29;20027;-80
2022/04/11 12:44:34;;;;;;;0.50;0.50;;;;;;;;;;4934009;29;20082;-79
2022/04/11 12:47:00;;;;;;;0.15;0.15;;;;;;;;;;4937530;29;20345;-81
2022/04/11 12:49:42;;;;;;;0.63;0.63;;;;;;;;;;4940355;29;20024;-79
2022/04/11 12:52:07;;;;;;;;;;;;;;;;;;4917891;29;20034;-80
2022/04/11 12:54:47;;;;;;;1.00;0.65;;;;;;;;;;4922466;29;19918;-79
2022/04/11 12:57:25;;;;;;;0.10;0.10;;;;;;;;;;4939637;29;20027;-81
2022/04/11 12:59:52;;;;;;;0.28;0.28;;;;;;;;;;4904096;29;20032;-80
2022/04/11 13:02:21;;;;;;;1.85;0.75;;;;;;;;;;4919397;29;20024;-80
2022/04/11 13:04:52;;;;;;;0.95;0.57;;;;;;;;;;4929995;29;20091;-79
2022/04/11 13:07:24;;;;;;;0.82;0.73;;;;;;;;;;4903557;29;20472;-80
2022/04/11 13:09:53;;;;;;;2.28;0.82;;;;;;;;;;4918325;29;20362;-82
2022/04/11 13:12:22;;;;;;;0.63;0.63;;;;;;;;;;4912169;29;20024;-80
2022/04/11 13:14:51;;;;;;;0.30;0.22;;;;;;;;;;4937598;29;20031;-78
2022/04/11 13:20:02;;;;;;;0.63;0.63;;;;;;;;;;4936669;29;20042;-81
2022/04/11 13:22:28;;;;;;;0.60;0.60;;;;;;;;;;4921037;29;20035;-80
2022/04/11 13:24:55;;;;;;;5.95;1.25;;;;;;;;;;4921036;29;20042;-80
2022/04/11 13:27:22;;;;;;;0.52;0.50;;;;;;;;;;4937568;29;20023;-81
2022/04/11 13:29:48;;;;;;;0.30;0.30;;;;;;;;;;4921239;29;20035;-80
2022/04/11 13:32:13;;;;;;;0.40;0.40;;;;;;;;;;4921728;29;20111;-81
2022/04/11 13:34:39;;;;;;;0.50;0.50;;;;;;;;;;4921908;29;20114;-80
2022/04/11 13:37:06;;;;;;;0.93;0.85;;;;;;;;;;4937965;29;20035;-80
2022/04/11 13:39:33;;;;;;;0.50;0.50;;;;;;;;;;4937606;29;20058;-80
2022/04/11 13:42:01;;;;;;;0.55;0.50;;;;;;;;;;4931138;29;20407;-81
2022/04/11 13:44:27;;;;;;;0.70;0.50;;;;;;;;;;4903339;29;20062;-80
2022/04/11 13:46:57;;;;;;;0.30;0.30;;;;;;;;;;4918898;29;20060;-80
2022/04/11 13:49:23;;;;;;;0.30;0.30;;;;;;;;;;4919484;29;20047;-79
2022/04/11 13:51:50;;;;;;;0.20;0.20;;;;;;;;;;4902634;29;20028;-80
2022/04/11 13:54:18;;;;;;;1.05;0.57;;;;;;;;;;4902458;29;20035;-80
2022/04/11 13:56:46;;;;;;;0.85;0.38;;;;;;;;;;4918700;29;20587;-80
2022/04/11 13:59:14;;;;;;;0.10;0.10;;;;;;;;;;4902854;29;20042;-81
2022/04/11 14:01:44;;;;;;;0.35;0.22;;;;;;;;;;4904127;29;20493;-81
2022/04/11 14:04:13;;;;;;;0.20;0.20;;;;;;;;;;4922944;29;20032;-80
2022/04/11 14:06:41;;;;;;;0.55;0.47;;;;;;;;;;4909383;29;20028;-81
2022/04/11 14:09:12;;;;;;;0.65;0.65;;;;;;;;;;4908943;29;20052;-80
2022/04/11 14:11:38;;;;;;;0.55;0.55;;;;;;;;;;4927610;29;20024;-81
2022/04/11 14:14:07;;;;;;;1.30;1.08;;;;;;;;;;4927245;29;20036;-80
2022/04/11 14:16:35;;;;;;;0.40;0.20;;;;;;;;;;4942667;29;20040;-80
2022/04/11 14:19:00;;;;;;;1.15;0.80;;;;;;;;;;4921622;29;20023;-81
2022/04/11 14:21:31;;;;;;;0.65;0.55;;;;;;;;;;4920830;29;20517;-80
2022/04/11 14:23:57;;;;;;;0.90;0.77;;;;;;;;;;4920917;29;20432;-79
2022/04/11 14:26:22;;;;;;;0.30;0.30;;;;;;;;;;4920911;29;20055;-81
2022/04/11 14:28:52;;;;;;;0.55;0.40;;;;;;;;;;4937631;29;20065;-80
2022/04/11 14:31:20;;;;;;;0.25;0.25;;;;;;;;;;4936586;29;20425;-80
2022/04/11 14:33:45;;;;;;;0.15;0.15;;;;;;;;;;4917486;29;20042;-80
2022/04/11 14:36:11;;;;;;;0.30;0.30;;;;;;;;;;4917585;29;20362;-80
2022/04/11 14:38:38;;;;;;;0.30;0.30;;;;;;;;;;4933665;29;20024;-81
2022/04/11 14:41:12;;;;;;;0.17;0.17;;;;;;;;;;4918546;29;20032;-80
2022/04/11 14:43:38;;;;;;;0.22;0.20;;;;;;;;;;4916593;29;20083;-80
2022/04/11 14:46:04;;;;;;;1.02;0.38;;;;;;;;;;4920940;29;20058;-80
2022/04/11 14:48:29;;;;;;;0.40;0.40;;;;;;;;;;4920694;29;20078;-80
2022/04/11 14:51:01;;;;;;;0.30;0.25;;;;;;;;;;4920837;29;20023;-79
2022/04/11 14:53:28;;;;;;;0.55;0.32;;;;;;;;;;4936870;29;20027;-79
2022/04/11 14:55:56;;;;;;;1.77;0.47;;;;;;;;;;4921078;29;20035;-80
2022/04/11 14:58:21;;;;;;;0.32;0.30;;;;;;;;;;4921007;29;20032;-80